createdAt,value
2019-04-07T00:02:50.776Z,62.80
2019-04-07T00:08:07.360Z,62.70
2019-04-07T00:13:22.962Z,62.70
2019-04-07T00:18:38.895Z,62.80
2019-04-07T00:23:54.869Z,62.80
2019-04-07T00:29:10.963Z,62.70
2019-04-07T00:34:27.570Z,62.80
2019-04-07T00:39:43.550Z,62.80
2019-04-07T00:44:59.706Z,62.80
2019-04-07T00:50:16.161Z,62.70
2019-04-07T00:55:32.377Z,62.80
2019-04-07T01:00:48.984Z,62.80
2019-04-07T01:06:04.962Z,62.80
2019-04-07T01:11:20.894Z,62.80
2019-04-07T01:16:37.474Z,62.90
2019-04-07T01:21:54.566Z,62.90
2019-04-07T01:27:11.605Z,62.90
2019-04-07T01:32:27.363Z,62.90
2019-04-07T01:37:43.025Z,63.10
2019-04-07T01:43:13.365Z,63.10
2019-04-07T01:48:51.112Z,63.10
2019-04-07T01:54:24.956Z,63.20
2019-04-07T02:00:15.297Z,63.20
2019-04-07T02:06:02.016Z,63.30
2019-04-07T02:11:35.090Z,63.50
2019-04-07T02:16:57.793Z,63.40
2019-04-07T02:22:51.149Z,63.40
2019-04-07T02:28:28.622Z,63.40
2019-04-07T02:34:03.294Z,63.60
2019-04-07T02:39:43.811Z,63.70
2019-04-07T02:45:10.973Z,63.70
2019-04-07T02:50:46.533Z,63.70
2019-04-07T02:56:20.811Z,63.90
2019-04-07T03:01:55.354Z,63.90
2019-04-07T03:07:28.010Z,64.00
2019-04-07T03:13:11.352Z,64.00
2019-04-07T03:18:39.392Z,64.20
2019-04-07T03:24:17.054Z,64.30
2019-04-07T03:29:49.304Z,64.50
2019-04-07T03:35:30.102Z,64.40
2019-04-07T03:41:21.248Z,64.40
2019-04-07T03:46:45.465Z,64.40
2019-04-07T03:52:19.991Z,64.50
2019-04-07T03:57:47.870Z,64.50
2019-04-07T04:03:17.736Z,64.50
2019-04-07T04:08:46.400Z,64.50
2019-04-07T04:14:09.882Z,64.70
2019-04-07T04:19:26.155Z,64.60
2019-04-07T04:24:43.701Z,64.60
2019-04-07T04:29:59.620Z,64.60
2019-04-07T04:35:15.443Z,64.70
2019-04-07T04:40:32.109Z,64.90
2019-04-07T04:45:48.487Z,65.00
2019-04-07T04:51:05.266Z,65.10
2019-04-07T04:56:28.831Z,65.20
2019-04-07T05:01:44.924Z,65.20
2019-04-07T05:07:01.272Z,65.20
2019-04-07T05:12:17.660Z,65.40
2019-04-07T05:17:33.579Z,65.60
2019-04-07T05:22:49.633Z,65.70
2019-04-07T05:28:05.807Z,65.60
2019-04-07T05:33:23.290Z,65.70
2019-04-07T05:38:39.532Z,65.60
2019-04-07T05:43:55.769Z,65.70
2019-04-07T05:49:12.294Z,65.70
2019-04-07T05:54:29.557Z,66.60
2019-04-07T05:59:45.183Z,65.70
2019-04-07T06:05:04.116Z,65.80
2019-04-07T06:10:22.331Z,65.90
2019-04-07T06:15:38.179Z,66.00
2019-04-07T06:20:53.922Z,66.20
2019-04-07T06:26:11.873Z,66.40
2019-04-07T06:31:31.326Z,66.70
2019-04-07T06:36:45.372Z,66.90
2019-04-07T06:42:02.389Z,67.30
2019-04-07T06:47:32.886Z,67.80
2019-04-07T06:53:26.869Z,68.20
2019-04-07T06:59:01.579Z,68.60
2019-04-07T07:04:30.097Z,68.80
2019-04-07T07:09:52.133Z,69.30
2019-04-07T07:15:39.681Z,69.80
2019-04-07T07:21:13.388Z,70.30
2019-04-07T07:26:32.823Z,70.70
2019-04-07T07:31:46.343Z,71.10
2019-04-07T07:37:03.019Z,71.50
2019-04-07T07:42:22.385Z,71.80
2019-04-07T07:47:37.245Z,72.10
2019-04-07T07:52:54.599Z,73.00
2019-04-07T07:58:11.581Z,72.80
2019-04-07T08:03:28.125Z,73.10
2019-04-07T08:08:47.362Z,73.50
2019-04-07T08:14:02.468Z,73.90
2019-04-07T08:19:19.018Z,74.00
2019-04-07T08:24:35.148Z,74.20
2019-04-07T08:29:52.650Z,74.40
2019-04-07T08:35:09.933Z,74.40
2019-04-07T08:40:26.345Z,74.60
2019-04-07T08:45:42.485Z,74.70
2019-04-07T08:51:00.501Z,74.90
2019-04-07T08:56:16.516Z,75.00
2019-04-07T09:01:33.694Z,75.20
2019-04-07T09:06:50.544Z,75.40
2019-04-07T09:12:07.176Z,75.30
2019-04-07T09:17:44.525Z,75.50
2019-04-07T09:23:38.140Z,75.50
2019-04-07T09:29:24.961Z,75.60
2019-04-07T09:34:56.128Z,75.70
2019-04-07T09:40:30.324Z,75.80
2019-04-07T09:46:24.299Z,75.90
2019-04-07T09:52:17.985Z,76.20
2019-04-07T09:57:56.053Z,76.00
2019-04-07T10:03:21.931Z,75.90
2019-04-07T10:08:53.287Z,76.10
2019-04-07T10:14:46.646Z,76.20
2019-04-07T10:20:15.638Z,76.30
2019-04-07T10:25:59.393Z,76.10
2019-04-07T10:31:34.098Z,76.60
2019-04-07T10:37:05.438Z,76.30
2019-04-07T10:42:38.897Z,75.90
2019-04-07T10:48:12.382Z,75.90
2019-04-07T10:53:48.377Z,76.30
2019-04-07T10:59:26.774Z,76.60
2019-04-07T11:05:05.154Z,76.90
2019-04-07T11:10:41.956Z,77.30
2019-04-07T11:16:22.298Z,77.40
2019-04-07T11:21:53.009Z,77.40
2019-04-07T11:27:33.019Z,77.30
2019-04-07T11:33:03.559Z,77.00
2019-04-07T11:38:43.000Z,78.20
2019-04-07T11:44:19.916Z,77.50
2019-04-07T11:49:55.180Z,77.20
2019-04-07T11:55:30.099Z,77.10
2019-04-07T12:01:17.220Z,77.20
2019-04-07T12:06:51.536Z,76.90
2019-04-07T12:12:42.265Z,76.80
2019-04-07T12:18:36.411Z,76.40
2019-04-07T12:24:28.373Z,75.70
2019-04-07T12:29:58.763Z,75.40
2019-04-07T12:35:53.179Z,75.10
2019-04-07T12:41:35.776Z,74.70
2019-04-07T12:47:11.275Z,74.10
2019-04-07T12:52:45.206Z,73.60
2019-04-07T12:58:32.366Z,73.10
2019-04-07T13:04:20.064Z,72.80
2019-04-07T13:10:05.310Z,72.10
2019-04-07T13:15:52.136Z,72.00
2019-04-07T13:21:29.672Z,71.20
2019-04-07T13:27:07.499Z,70.40
2019-04-07T13:32:43.002Z,69.90
2019-04-07T13:38:16.455Z,69.30
2019-04-07T13:44:04.785Z,68.40
2019-04-07T13:49:41.358Z,67.80
2019-04-07T13:55:05.098Z,67.20
2019-04-07T14:00:46.958Z,66.80
2019-04-07T14:06:28.362Z,66.20
2019-04-07T14:12:10.565Z,65.90
2019-04-07T14:17:56.893Z,65.20
2019-04-07T14:23:19.834Z,64.90
2019-04-07T14:28:50.087Z,64.50
2019-04-07T14:34:26.124Z,64.00
2019-04-07T14:40:20.399Z,63.70
2019-04-07T14:45:52.650Z,63.20
2019-04-07T14:51:26.267Z,62.90
2019-04-07T14:56:54.248Z,62.80
2019-04-07T15:02:11.657Z,62.40
2019-04-07T15:07:50.306Z,62.30
2019-04-07T15:13:23.934Z,62.00
2019-04-07T15:18:38.201Z,61.80
2019-04-07T15:23:54.284Z,61.50
2019-04-07T15:29:15.987Z,61.50
2019-04-07T15:34:32.139Z,61.30
2019-04-07T15:39:48.026Z,61.30
2019-04-07T15:45:11.250Z,61.20
2019-04-07T15:50:29.285Z,61.20
2019-04-07T15:55:50.992Z,60.90
2019-04-07T16:01:02.786Z,60.90
2019-04-07T16:06:21.876Z,60.90
2019-04-07T16:11:38.117Z,60.80
2019-04-07T16:16:54.909Z,60.70
2019-04-07T16:22:13.968Z,60.60
2019-04-07T16:27:29.358Z,60.30
2019-04-07T16:32:45.330Z,60.20
2019-04-07T16:38:02.731Z,60.20
2019-04-07T16:43:20.104Z,60.00
2019-04-07T16:48:39.974Z,59.90
2019-04-07T16:53:56.357Z,59.80
2019-04-07T16:59:12.419Z,59.80
2019-04-07T17:04:29.983Z,59.60
2019-04-07T17:09:46.728Z,59.60
2019-04-07T17:15:04.537Z,59.50
2019-04-07T17:20:20.407Z,59.50
2019-04-07T17:25:36.291Z,59.50
2019-04-07T17:30:56.209Z,59.50
2019-04-07T17:36:10.355Z,59.40
2019-04-07T17:41:26.539Z,59.40
2019-04-07T17:47:16.134Z,59.50
2019-04-07T17:52:51.193Z,59.50
2019-04-07T17:58:17.196Z,59.40
2019-04-07T18:04:05.028Z,59.50
2019-04-07T18:09:39.503Z,59.40
2019-04-07T18:15:17.863Z,59.50
2019-04-07T18:21:07.206Z,59.50
2019-04-07T18:32:19.388Z,59.50
2019-04-07T18:38:00.195Z,59.40
2019-04-07T18:43:34.279Z,59.40
2019-04-07T18:49:19.163Z,59.40
2019-04-07T18:55:39.332Z,59.50
2019-04-07T19:01:22.309Z,59.60
2019-04-07T19:07:09.688Z,59.70
2019-04-07T19:13:34.670Z,59.80
2019-04-07T19:19:26.623Z,60.00
2019-04-07T19:25:27.021Z,60.10
2019-04-07T19:31:01.150Z,60.10
2019-04-07T19:36:34.904Z,60.10
2019-04-07T19:42:15.417Z,60.20
2019-04-07T19:47:59.393Z,60.20
2019-04-07T19:53:33.072Z,60.40
2019-04-07T19:59:11.492Z,60.30
2019-04-07T20:04:53.443Z,60.50
2019-04-07T20:10:30.394Z,60.60
2019-04-07T20:16:17.811Z,60.70
2019-04-07T20:22:03.318Z,60.70
2019-04-07T20:27:45.406Z,60.90
2019-04-07T20:33:18.825Z,60.90
2019-04-07T20:39:00.450Z,61.00
2019-04-07T20:45:13.579Z,61.00
2019-04-07T20:50:36.049Z,61.20
2019-04-07T20:56:12.643Z,61.30
2019-04-07T21:01:44.561Z,61.40
2019-04-07T21:07:15.346Z,61.50
2019-04-07T21:12:37.077Z,61.80
2019-04-07T21:18:06.439Z,62.10
2019-04-07T21:23:33.135Z,62.40
2019-04-07T21:28:56.757Z,62.60
2019-04-07T21:34:34.754Z,62.90
2019-04-07T21:40:04.920Z,63.60
2019-04-07T21:45:41.012Z,63.70
2019-04-07T21:51:15.337Z,64.10
2019-04-07T21:56:45.211Z,64.20
2019-04-07T22:02:33.431Z,64.40
2019-04-07T22:08:11.833Z,64.40
2019-04-07T22:13:23.845Z,64.40
2019-04-07T22:18:39.855Z,64.70
2019-04-07T22:23:56.191Z,64.90
2019-04-07T22:29:12.442Z,64.90
2019-04-07T22:34:32.276Z,65.30
2019-04-07T22:39:45.689Z,65.50
2019-04-07T22:45:02.124Z,65.50
2019-04-07T22:50:18.864Z,65.60
2019-04-07T22:55:36.179Z,65.70
2019-04-07T23:00:53.082Z,65.80
2019-04-07T23:06:09.403Z,65.90
2019-04-07T23:11:25.782Z,65.90
2019-04-07T23:16:42.284Z,66.00
2019-04-07T23:21:58.341Z,66.10
2019-04-07T23:27:14.578Z,66.10
2019-04-07T23:32:31.136Z,66.20
2019-04-07T23:37:47.209Z,66.30
2019-04-07T23:43:03.250Z,66.40
2019-04-07T23:48:19.181Z,66.50
2019-04-07T23:54:09.560Z,66.70
2019-04-07T23:59:26.754Z,66.90
